sensor_id;sensor_type;location;lat;lon;timestamp;temperature;humidity
52615;DHT22;38508;53.158;6.614;2023-05-29T00:00:33;13.40;99.90
52615;DHT22;38508;53.158;6.614;2023-05-29T00:02:59;13.50;99.90
52615;DHT22;38508;53.158;6.614;2023-05-29T00:05:24;13.50;99.90
52615;DHT22;38508;53.158;6.614;2023-05-29T00:07:50;13.50;99.90
52615;DHT22;38508;53.158;6.614;2023-05-29T00:10:16;13.50;99.90
52615;DHT22;38508;53.158;6.614;2023-05-29T00:12:42;13.50;99.90
52615;DHT22;38508;53.158;6.614;2023-05-29T00:15:09;13.40;99.90
52615;DHT22;38508;53.158;6.614;2023-05-29T00:17:38;13.30;99.90
52615;DHT22;38508;53.158;6.614;2023-05-29T00:20:05;13.30;99.90
52615;DHT22;38508;53.158;6.614;2023-05-29T00:22:35;13.30;99.90
52615;DHT22;38508;53.158;6.614;2023-05-29T00:25:04;13.30;99.90
52615;DHT22;38508;53.158;6.614;2023-05-29T00:27:31;13.30;99.90
52615;DHT22;38508;53.158;6.614;2023-05-29T00:29:58;13.20;99.90
52615;DHT22;38508;53.158;6.614;2023-05-29T00:32:24;13.10;99.90
52615;DHT22;38508;53.158;6.614;2023-05-29T00:34:51;13.10;99.90
52615;DHT22;38508;53.158;6.614;2023-05-29T00:37:17;13.10;99.90
52615;DHT22;38508;53.158;6.614;2023-05-29T00:39:43;13.20;99.90
52615;DHT22;38508;53.158;6.614;2023-05-29T00:42:08;13.10;99.90
52615;DHT22;38508;53.158;6.614;2023-05-29T00:44:34;13.10;99.90
52615;DHT22;38508;53.158;6.614;2023-05-29T00:47:01;13.10;99.90
52615;DHT22;38508;53.158;6.614;2023-05-29T00:49:27;13.10;99.90
52615;DHT22;38508;53.158;6.614;2023-05-29T00:51:54;13.20;99.90
52615;DHT22;38508;53.158;6.614;2023-05-29T00:54:23;13.10;99.90
52615;DHT22;38508;53.158;6.614;2023-05-29T00:56:52;13.00;99.90
52615;DHT22;38508;53.158;6.614;2023-05-29T00:59:18;13.00;99.90
52615;DHT22;38508;53.158;6.614;2023-05-29T01:01:48;12.90;99.90
52615;DHT22;38508;53.158;6.614;2023-05-29T01:04:15;12.90;99.90
52615;DHT22;38508;53.158;6.614;2023-05-29T01:06:42;12.80;99.90
52615;DHT22;38508;53.158;6.614;2023-05-29T01:09:07;12.90;99.90
52615;DHT22;38508;53.158;6.614;2023-05-29T01:14:08;12.90;99.90
52615;DHT22;38508;53.158;6.614;2023-05-29T01:16:48;12.90;99.90
52615;DHT22;38508;53.158;6.614;2023-05-29T01:22:25;12.90;99.90
52615;DHT22;38508;53.158;6.614;2023-05-29T01:28:06;12.80;99.90
52615;DHT22;38508;53.158;6.614;2023-05-29T01:30:33;12.80;99.90
52615;DHT22;38508;53.158;6.614;2023-05-29T01:32:59;12.80;99.90
52615;DHT22;38508;53.158;6.614;2023-05-29T01:35:25;12.70;99.90
52615;DHT22;38508;53.158;6.614;2023-05-29T01:37:51;12.80;99.90
52615;DHT22;38508;53.158;6.614;2023-05-29T01:40:17;12.70;99.90
52615;DHT22;38508;53.158;6.614;2023-05-29T01:42:43;12.80;99.90
52615;DHT22;38508;53.158;6.614;2023-05-29T01:45:09;12.80;99.90
52615;DHT22;38508;53.158;6.614;2023-05-29T01:47:36;12.70;99.90
52615;DHT22;38508;53.158;6.614;2023-05-29T01:50:04;12.60;99.90
52615;DHT22;38508;53.158;6.614;2023-05-29T01:52:31;12.60;99.90
52615;DHT22;38508;53.158;6.614;2023-05-29T01:54:57;12.60;99.90
52615;DHT22;38508;53.158;6.614;2023-05-29T01:57:23;12.60;99.90
52615;DHT22;38508;53.158;6.614;2023-05-29T01:59:49;12.70;99.90
52615;DHT22;38508;53.158;6.614;2023-05-29T02:02:15;12.70;99.90
52615;DHT22;38508;53.158;6.614;2023-05-29T02:04:41;12.60;99.90
52615;DHT22;38508;53.158;6.614;2023-05-29T02:07:07;12.60;99.90
52615;DHT22;38508;53.158;6.614;2023-05-29T02:09:34;12.60;99.90
52615;DHT22;38508;53.158;6.614;2023-05-29T02:12:00;12.50;99.90
52615;DHT22;38508;53.158;6.614;2023-05-29T02:14:27;12.50;99.90
52615;DHT22;38508;53.158;6.614;2023-05-29T02:16:53;12.50;99.90
52615;DHT22;38508;53.158;6.614;2023-05-29T02:19:19;12.50;99.90
52615;DHT22;38508;53.158;6.614;2023-05-29T02:21:46;12.50;99.90
52615;DHT22;38508;53.158;6.614;2023-05-29T02:24:12;12.50;99.90
52615;DHT22;38508;53.158;6.614;2023-05-29T02:26:37;12.50;99.90
52615;DHT22;38508;53.158;6.614;2023-05-29T02:29:03;12.50;99.90
52615;DHT22;38508;53.158;6.614;2023-05-29T02:31:31;12.50;99.90
52615;DHT22;38508;53.158;6.614;2023-05-29T02:33:56;12.50;99.90
52615;DHT22;38508;53.158;6.614;2023-05-29T02:36:22;12.50;99.90
52615;DHT22;38508;53.158;6.614;2023-05-29T02:38:48;12.40;99.90
52615;DHT22;38508;53.158;6.614;2023-05-29T02:41:14;12.50;99.90
52615;DHT22;38508;53.158;6.614;2023-05-29T02:43:39;12.40;99.90
52615;DHT22;38508;53.158;6.614;2023-05-29T02:46:05;12.40;99.90
52615;DHT22;38508;53.158;6.614;2023-05-29T02:48:30;12.30;99.90
52615;DHT22;38508;53.158;6.614;2023-05-29T02:50:56;12.30;99.90
52615;DHT22;38508;53.158;6.614;2023-05-29T02:53:22;12.30;99.90
52615;DHT22;38508;53.158;6.614;2023-05-29T02:55:48;12.20;99.90
52615;DHT22;38508;53.158;6.614;2023-05-29T02:58:14;12.30;99.90
52615;DHT22;38508;53.158;6.614;2023-05-29T03:00:41;12.30;99.90
52615;DHT22;38508;53.158;6.614;2023-05-29T03:03:07;12.20;99.90
52615;DHT22;38508;53.158;6.614;2023-05-29T03:05:33;12.20;99.90
52615;DHT22;38508;53.158;6.614;2023-05-29T03:08:02;12.20;99.90
52615;DHT22;38508;53.158;6.614;2023-05-29T03:10:27;12.20;99.90
52615;DHT22;38508;53.158;6.614;2023-05-29T03:12:53;12.20;99.90
52615;DHT22;38508;53.158;6.614;2023-05-29T03:15:19;12.20;99.90
52615;DHT22;38508;53.158;6.614;2023-05-29T03:17:46;12.10;99.90
52615;DHT22;38508;53.158;6.614;2023-05-29T03:20:12;12.10;99.90
52615;DHT22;38508;53.158;6.614;2023-05-29T03:22:38;12.10;99.90
52615;DHT22;38508;53.158;6.614;2023-05-29T03:25:04;12.00;99.90
52615;DHT22;38508;53.158;6.614;2023-05-29T03:27:31;12.00;99.90
52615;DHT22;38508;53.158;6.614;2023-05-29T03:29:57;12.10;99.90
52615;DHT22;38508;53.158;6.614;2023-05-29T03:32:23;12.10;99.90
52615;DHT22;38508;53.158;6.614;2023-05-29T03:34:49;12.10;99.90
52615;DHT22;38508;53.158;6.614;2023-05-29T03:37:15;12.20;99.90
52615;DHT22;38508;53.158;6.614;2023-05-29T03:39:41;12.20;99.90
52615;DHT22;38508;53.158;6.614;2023-05-29T03:42:07;12.20;99.90
52615;DHT22;38508;53.158;6.614;2023-05-29T03:44:33;12.20;99.90
52615;DHT22;38508;53.158;6.614;2023-05-29T03:46:59;12.20;99.90
52615;DHT22;38508;53.158;6.614;2023-05-29T03:49:24;12.20;99.90
52615;DHT22;38508;53.158;6.614;2023-05-29T03:51:50;12.20;99.90
52615;DHT22;38508;53.158;6.614;2023-05-29T03:54:16;12.20;99.90
52615;DHT22;38508;53.158;6.614;2023-05-29T03:56:42;12.30;99.90
52615;DHT22;38508;53.158;6.614;2023-05-29T03:59:08;12.40;99.90
52615;DHT22;38508;53.158;6.614;2023-05-29T04:01:34;12.50;99.90
52615;DHT22;38508;53.158;6.614;2023-05-29T04:04:00;12.60;99.90
52615;DHT22;38508;53.158;6.614;2023-05-29T04:06:26;12.60;99.90
52615;DHT22;38508;53.158;6.614;2023-05-29T04:08:52;12.60;99.90
52615;DHT22;38508;53.158;6.614;2023-05-29T04:11:18;12.60;99.90
52615;DHT22;38508;53.158;6.614;2023-05-29T04:13:46;12.60;99.90
52615;DHT22;38508;53.158;6.614;2023-05-29T04:16:13;12.70;99.90
52615;DHT22;38508;53.158;6.614;2023-05-29T04:18:39;12.50;99.90
52615;DHT22;38508;53.158;6.614;2023-05-29T04:21:05;12.60;99.90
52615;DHT22;38508;53.158;6.614;2023-05-29T04:23:31;12.70;99.90
52615;DHT22;38508;53.158;6.614;2023-05-29T04:25:56;12.80;99.90
52615;DHT22;38508;53.158;6.614;2023-05-29T04:28:22;12.80;99.90
52615;DHT22;38508;53.158;6.614;2023-05-29T04:30:49;12.70;99.90
52615;DHT22;38508;53.158;6.614;2023-05-29T04:33:14;12.80;99.90
52615;DHT22;38508;53.158;6.614;2023-05-29T04:35:40;12.80;99.90
52615;DHT22;38508;53.158;6.614;2023-05-29T04:38:10;13.00;99.90
52615;DHT22;38508;53.158;6.614;2023-05-29T04:40:35;13.00;99.90
52615;DHT22;38508;53.158;6.614;2023-05-29T04:43:06;13.20;99.90
52615;DHT22;38508;53.158;6.614;2023-05-29T04:45:31;13.20;99.90
52615;DHT22;38508;53.158;6.614;2023-05-29T04:47:57;13.00;99.90
52615;DHT22;38508;53.158;6.614;2023-05-29T04:50:23;13.00;99.90
52615;DHT22;38508;53.158;6.614;2023-05-29T04:52:49;12.90;99.90
52615;DHT22;38508;53.158;6.614;2023-05-29T04:55:15;12.70;99.90
52615;DHT22;38508;53.158;6.614;2023-05-29T04:57:41;12.70;99.90
52615;DHT22;38508;53.158;6.614;2023-05-29T05:00:07;12.90;99.90
52615;DHT22;38508;53.158;6.614;2023-05-29T05:02:41;13.10;99.90
52615;DHT22;38508;53.158;6.614;2023-05-29T05:05:08;13.20;99.90
52615;DHT22;38508;53.158;6.614;2023-05-29T05:07:34;13.30;99.90
52615;DHT22;38508;53.158;6.614;2023-05-29T05:10:00;13.20;99.90
52615;DHT22;38508;53.158;6.614;2023-05-29T05:12:26;13.30;99.90
52615;DHT22;38508;53.158;6.614;2023-05-29T05:14:52;13.20;99.90
52615;DHT22;38508;53.158;6.614;2023-05-29T05:17:17;13.40;99.90
52615;DHT22;38508;53.158;6.614;2023-05-29T05:19:43;13.60;99.90
52615;DHT22;38508;53.158;6.614;2023-05-29T05:22:08;13.50;99.90
52615;DHT22;38508;53.158;6.614;2023-05-29T05:24:34;13.60;99.90
52615;DHT22;38508;53.158;6.614;2023-05-29T05:27:00;13.80;99.90
52615;DHT22;38508;53.158;6.614;2023-05-29T05:29:27;13.70;99.90
52615;DHT22;38508;53.158;6.614;2023-05-29T05:31:52;13.70;99.90
52615;DHT22;38508;53.158;6.614;2023-05-29T05:34:18;13.80;99.90
52615;DHT22;38508;53.158;6.614;2023-05-29T05:36:44;13.90;99.90
52615;DHT22;38508;53.158;6.614;2023-05-29T05:39:10;13.70;99.90
52615;DHT22;38508;53.158;6.614;2023-05-29T05:41:35;13.80;99.90
52615;DHT22;38508;53.158;6.614;2023-05-29T05:44:01;13.90;99.90
52615;DHT22;38508;53.158;6.614;2023-05-29T05:46:27;14.10;99.90
52615;DHT22;38508;53.158;6.614;2023-05-29T05:48:53;14.30;99.90
52615;DHT22;38508;53.158;6.614;2023-05-29T05:51:23;14.30;99.90
52615;DHT22;38508;53.158;6.614;2023-05-29T05:53:48;14.40;99.90
52615;DHT22;38508;53.158;6.614;2023-05-29T05:56:14;14.30;99.90
52615;DHT22;38508;53.158;6.614;2023-05-29T05:58:40;14.40;99.90
52615;DHT22;38508;53.158;6.614;2023-05-29T06:01:07;14.30;99.90
52615;DHT22;38508;53.158;6.614;2023-05-29T06:03:33;14.40;99.90
52615;DHT22;38508;53.158;6.614;2023-05-29T06:06:00;14.40;99.90
52615;DHT22;38508;53.158;6.614;2023-05-29T06:08:26;14.60;99.90
52615;DHT22;38508;53.158;6.614;2023-05-29T06:10:52;14.50;99.90
52615;DHT22;38508;53.158;6.614;2023-05-29T06:13:18;14.40;99.90
52615;DHT22;38508;53.158;6.614;2023-05-29T06:15:44;14.10;99.90
52615;DHT22;38508;53.158;6.614;2023-05-29T06:18:10;13.90;99.90
52615;DHT22;38508;53.158;6.614;2023-05-29T06:20:35;13.90;99.90
52615;DHT22;38508;53.158;6.614;2023-05-29T06:23:02;14.00;99.90
52615;DHT22;38508;53.158;6.614;2023-05-29T06:25:27;14.20;99.90
52615;DHT22;38508;53.158;6.614;2023-05-29T06:28:02;14.00;99.90
52615;DHT22;38508;53.158;6.614;2023-05-29T06:30:28;14.10;99.90
52615;DHT22;38508;53.158;6.614;2023-05-29T06:32:54;14.00;99.90
52615;DHT22;38508;53.158;6.614;2023-05-29T06:35:20;14.10;99.90
52615;DHT22;38508;53.158;6.614;2023-05-29T06:37:46;14.20;99.90
52615;DHT22;38508;53.158;6.614;2023-05-29T06:40:12;14.20;99.90
52615;DHT22;38508;53.158;6.614;2023-05-29T06:42:38;14.40;99.90
52615;DHT22;38508;53.158;6.614;2023-05-29T06:45:04;14.60;99.90
52615;DHT22;38508;53.158;6.614;2023-05-29T06:47:30;14.50;99.90
52615;DHT22;38508;53.158;6.614;2023-05-29T06:49:56;14.50;99.90
52615;DHT22;38508;53.158;6.614;2023-05-29T06:52:21;14.40;99.90
52615;DHT22;38508;53.158;6.614;2023-05-29T06:54:47;14.70;99.90
52615;DHT22;38508;53.158;6.614;2023-05-29T06:57:12;14.70;99.90
52615;DHT22;38508;53.158;6.614;2023-05-29T06:59:38;14.70;99.90
52615;DHT22;38508;53.158;6.614;2023-05-29T07:02:04;14.70;99.90
52615;DHT22;38508;53.158;6.614;2023-05-29T07:04:30;14.60;99.90
52615;DHT22;38508;53.158;6.614;2023-05-29T07:06:56;14.60;99.90
52615;DHT22;38508;53.158;6.614;2023-05-29T07:09:22;14.80;99.90
52615;DHT22;38508;53.158;6.614;2023-05-29T07:11:47;14.80;99.90
52615;DHT22;38508;53.158;6.614;2023-05-29T07:14:13;14.80;99.90
52615;DHT22;38508;53.158;6.614;2023-05-29T07:16:39;15.00;99.90
52615;DHT22;38508;53.158;6.614;2023-05-29T07:19:05;14.50;99.90
52615;DHT22;38508;53.158;6.614;2023-05-29T07:21:31;14.40;99.90
52615;DHT22;38508;53.158;6.614;2023-05-29T07:23:58;14.30;99.90
52615;DHT22;38508;53.158;6.614;2023-05-29T07:26:24;14.40;99.90
52615;DHT22;38508;53.158;6.614;2023-05-29T07:28:50;14.40;99.90
52615;DHT22;38508;53.158;6.614;2023-05-29T07:31:16;14.50;99.90
52615;DHT22;38508;53.158;6.614;2023-05-29T07:33:42;14.70;99.90
52615;DHT22;38508;53.158;6.614;2023-05-29T07:36:08;14.80;99.90
52615;DHT22;38508;53.158;6.614;2023-05-29T07:38:33;14.90;99.90
52615;DHT22;38508;53.158;6.614;2023-05-29T07:40:59;15.10;99.90
52615;DHT22;38508;53.158;6.614;2023-05-29T07:43:25;15.20;99.90
52615;DHT22;38508;53.158;6.614;2023-05-29T07:45:50;15.30;99.90
52615;DHT22;38508;53.158;6.614;2023-05-29T07:48:16;15.40;99.90
52615;DHT22;38508;53.158;6.614;2023-05-29T07:50:42;15.50;99.90
52615;DHT22;38508;53.158;6.614;2023-05-29T07:53:07;15.70;99.90
52615;DHT22;38508;53.158;6.614;2023-05-29T07:55:34;15.80;99.90
52615;DHT22;38508;53.158;6.614;2023-05-29T07:58:01;15.80;99.90
52615;DHT22;38508;53.158;6.614;2023-05-29T08:00:27;15.90;99.90
52615;DHT22;38508;53.158;6.614;2023-05-29T08:02:54;15.60;99.90
52615;DHT22;38508;53.158;6.614;2023-05-29T08:05:19;15.40;99.90
52615;DHT22;38508;53.158;6.614;2023-05-29T08:07:48;15.70;99.90
52615;DHT22;38508;53.158;6.614;2023-05-29T08:10:14;15.30;99.90
52615;DHT22;38508;53.158;6.614;2023-05-29T08:12:40;15.30;99.90
52615;DHT22;38508;53.158;6.614;2023-05-29T08:15:06;15.20;99.90
52615;DHT22;38508;53.158;6.614;2023-05-29T08:17:31;15.20;99.90
52615;DHT22;38508;53.158;6.614;2023-05-29T08:19:57;15.40;99.90
52615;DHT22;38508;53.158;6.614;2023-05-29T08:22:28;15.40;99.90
52615;DHT22;38508;53.158;6.614;2023-05-29T08:24:55;15.60;99.90
52615;DHT22;38508;53.158;6.614;2023-05-29T08:27:21;15.40;99.90
52615;DHT22;38508;53.158;6.614;2023-05-29T08:29:46;15.10;99.90
52615;DHT22;38508;53.158;6.614;2023-05-29T08:32:12;15.40;99.90
52615;DHT22;38508;53.158;6.614;2023-05-29T08:34:38;15.60;99.90
52615;DHT22;38508;53.158;6.614;2023-05-29T08:37:04;15.80;99.90
52615;DHT22;38508;53.158;6.614;2023-05-29T08:39:30;15.80;99.90
52615;DHT22;38508;53.158;6.614;2023-05-29T08:42:10;15.70;99.90
52615;DHT22;38508;53.158;6.614;2023-05-29T08:44:39;15.80;99.90
52615;DHT22;38508;53.158;6.614;2023-05-29T08:47:07;16.00;99.90
52615;DHT22;38508;53.158;6.614;2023-05-29T08:49:41;16.00;99.90
52615;DHT22;38508;53.158;6.614;2023-05-29T08:52:19;16.10;99.90
52615;DHT22;38508;53.158;6.614;2023-05-29T08:54:45;16.10;99.90
52615;DHT22;38508;53.158;6.614;2023-05-29T08:57:12;16.10;99.90
52615;DHT22;38508;53.158;6.614;2023-05-29T08:59:41;16.00;99.90
52615;DHT22;38508;53.158;6.614;2023-05-29T09:02:07;16.10;99.90
52615;DHT22;38508;53.158;6.614;2023-05-29T09:04:33;16.20;99.90
52615;DHT22;38508;53.158;6.614;2023-05-29T09:06:59;16.10;99.90
52615;DHT22;38508;53.158;6.614;2023-05-29T09:09:26;16.00;99.90
52615;DHT22;38508;53.158;6.614;2023-05-29T09:11:56;16.10;99.90
52615;DHT22;38508;53.158;6.614;2023-05-29T09:14:41;16.10;99.90
52615;DHT22;38508;53.158;6.614;2023-05-29T09:17:09;16.00;99.90
52615;DHT22;38508;53.158;6.614;2023-05-29T09:19:36;16.00;99.90
52615;DHT22;38508;53.158;6.614;2023-05-29T09:22:05;16.30;99.90
52615;DHT22;38508;53.158;6.614;2023-05-29T09:24:35;16.60;99.90
52615;DHT22;38508;53.158;6.614;2023-05-29T09:27:05;16.80;99.90
52615;DHT22;38508;53.158;6.614;2023-05-29T09:29:37;17.00;99.90
52615;DHT22;38508;53.158;6.614;2023-05-29T09:32:10;17.20;99.90
52615;DHT22;38508;53.158;6.614;2023-05-29T09:34:37;17.40;99.90
52615;DHT22;38508;53.158;6.614;2023-05-29T09:37:07;17.50;99.90
52615;DHT22;38508;53.158;6.614;2023-05-29T09:39:50;17.80;99.90
52615;DHT22;38508;53.158;6.614;2023-05-29T09:42:19;17.80;99.90
52615;DHT22;38508;53.158;6.614;2023-05-29T09:44:48;17.80;99.90
52615;DHT22;38508;53.158;6.614;2023-05-29T09:47:17;17.70;99.90
52615;DHT22;38508;53.158;6.614;2023-05-29T09:49:44;17.70;99.90
52615;DHT22;38508;53.158;6.614;2023-05-29T09:52:12;17.50;99.90
52615;DHT22;38508;53.158;6.614;2023-05-29T09:54:42;17.80;99.90
52615;DHT22;38508;53.158;6.614;2023-05-29T09:57:14;17.90;99.90
52615;DHT22;38508;53.158;6.614;2023-05-29T09:59:43;17.90;99.90
52615;DHT22;38508;53.158;6.614;2023-05-29T10:02:11;17.80;99.90
52615;DHT22;38508;53.158;6.614;2023-05-29T10:04:39;18.00;99.90
52615;DHT22;38508;53.158;6.614;2023-05-29T10:07:28;17.80;99.90
52615;DHT22;38508;53.158;6.614;2023-05-29T10:10:03;17.80;99.90
52615;DHT22;38508;53.158;6.614;2023-05-29T10:12:29;17.90;99.90
52615;DHT22;38508;53.158;6.614;2023-05-29T10:14:57;18.20;99.90
52615;DHT22;38508;53.158;6.614;2023-05-29T10:17:33;17.60;99.90
52615;DHT22;38508;53.158;6.614;2023-05-29T10:20:02;17.50;99.90
52615;DHT22;38508;53.158;6.614;2023-05-29T10:22:31;17.60;99.90
52615;DHT22;38508;53.158;6.614;2023-05-29T10:24:58;18.10;99.90
52615;DHT22;38508;53.158;6.614;2023-05-29T10:27:24;18.40;99.90
52615;DHT22;38508;53.158;6.614;2023-05-29T10:30:02;18.40;99.90
52615;DHT22;38508;53.158;6.614;2023-05-29T10:35:28;18.10;99.90
52615;DHT22;38508;53.158;6.614;2023-05-29T10:38:10;18.20;99.90
52615;DHT22;38508;53.158;6.614;2023-05-29T10:40:37;18.30;99.90
52615;DHT22;38508;53.158;6.614;2023-05-29T10:43:02;18.10;99.90
52615;DHT22;38508;53.158;6.614;2023-05-29T10:50:54;18.40;99.90
52615;DHT22;38508;53.158;6.614;2023-05-29T10:53:25;18.40;99.90
52615;DHT22;38508;53.158;6.614;2023-05-29T10:55:54;18.60;99.90
52615;DHT22;38508;53.158;6.614;2023-05-29T10:58:21;18.80;99.90
52615;DHT22;38508;53.158;6.614;2023-05-29T11:00:48;19.10;99.90
52615;DHT22;38508;53.158;6.614;2023-05-29T11:03:21;19.30;99.90
52615;DHT22;38508;53.158;6.614;2023-05-29T11:06:33;19.20;99.90
52615;DHT22;38508;53.158;6.614;2023-05-29T11:08:56;19.40;99.90
52615;DHT22;38508;53.158;6.614;2023-05-29T11:13:56;19.20;99.90
52615;DHT22;38508;53.158;6.614;2023-05-29T11:18:57;19.30;99.90
52615;DHT22;38508;53.158;6.614;2023-05-29T11:24:04;18.80;99.90
52615;DHT22;38508;53.158;6.614;2023-05-29T11:26:33;18.60;99.90
52615;DHT22;38508;53.158;6.614;2023-05-29T11:29:05;18.70;99.90
52615;DHT22;38508;53.158;6.614;2023-05-29T11:31:33;18.60;99.90
52615;DHT22;38508;53.158;6.614;2023-05-29T11:34:02;18.90;99.90
52615;DHT22;38508;53.158;6.614;2023-05-29T11:36:33;18.80;99.90
52615;DHT22;38508;53.158;6.614;2023-05-29T11:39:00;18.60;99.90
52615;DHT22;38508;53.158;6.614;2023-05-29T11:41:26;18.70;99.90
52615;DHT22;38508;53.158;6.614;2023-05-29T11:44:00;19.20;99.90
52615;DHT22;38508;53.158;6.614;2023-05-29T11:46:27;19.30;99.90
52615;DHT22;38508;53.158;6.614;2023-05-29T11:48:56;19.40;99.90
52615;DHT22;38508;53.158;6.614;2023-05-29T11:51:22;19.60;99.90
52615;DHT22;38508;53.158;6.614;2023-05-29T11:53:48;19.90;99.90
52615;DHT22;38508;53.158;6.614;2023-05-29T11:56:14;19.40;99.90
52615;DHT22;38508;53.158;6.614;2023-05-29T11:58:40;19.20;99.90
52615;DHT22;38508;53.158;6.614;2023-05-29T12:01:09;19.30;99.90
52615;DHT22;38508;53.158;6.614;2023-05-29T12:03:41;19.30;99.90
52615;DHT22;38508;53.158;6.614;2023-05-29T12:06:09;19.50;99.90
52615;DHT22;38508;53.158;6.614;2023-05-29T12:08:36;20.20;99.90
52615;DHT22;38508;53.158;6.614;2023-05-29T12:11:02;20.20;99.90
52615;DHT22;38508;53.158;6.614;2023-05-29T12:13:28;20.50;99.90
52615;DHT22;38508;53.158;6.614;2023-05-29T12:16:02;20.60;99.90
52615;DHT22;38508;53.158;6.614;2023-05-29T12:18:28;20.40;99.90
52615;DHT22;38508;53.158;6.614;2023-05-29T12:21:02;20.20;99.90
52615;DHT22;38508;53.158;6.614;2023-05-29T12:23:28;20.30;99.90
52615;DHT22;38508;53.158;6.614;2023-05-29T12:25:55;20.30;99.90
52615;DHT22;38508;53.158;6.614;2023-05-29T12:28:21;20.20;99.90
52615;DHT22;38508;53.158;6.614;2023-05-29T12:30:48;20.60;99.90
52615;DHT22;38508;53.158;6.614;2023-05-29T12:33:34;21.00;99.90
52615;DHT22;38508;53.158;6.614;2023-05-29T12:36:07;21.10;99.90
52615;DHT22;38508;53.158;6.614;2023-05-29T12:38:51;21.20;99.90
52615;DHT22;38508;53.158;6.614;2023-05-29T12:41:33;21.20;99.90
52615;DHT22;38508;53.158;6.614;2023-05-29T12:44:01;20.80;99.90
52615;DHT22;38508;53.158;6.614;2023-05-29T12:46:35;20.50;99.90
52615;DHT22;38508;53.158;6.614;2023-05-29T12:49:17;20.60;99.90
52615;DHT22;38508;53.158;6.614;2023-05-29T12:51:48;20.50;99.90
52615;DHT22;38508;53.158;6.614;2023-05-29T12:54:15;20.70;99.90
52615;DHT22;38508;53.158;6.614;2023-05-29T12:56:42;20.80;99.90
52615;DHT22;38508;53.158;6.614;2023-05-29T12:59:08;21.20;99.90
52615;DHT22;38508;53.158;6.614;2023-05-29T13:01:36;21.60;99.90
52615;DHT22;38508;53.158;6.614;2023-05-29T13:04:02;21.80;99.90
52615;DHT22;38508;53.158;6.614;2023-05-29T13:06:29;22.10;99.90
52615;DHT22;38508;53.158;6.614;2023-05-29T13:08:54;22.30;99.90
52615;DHT22;38508;53.158;6.614;2023-05-29T13:11:20;22.30;99.90
52615;DHT22;38508;53.158;6.614;2023-05-29T13:13:47;22.30;99.90
52615;DHT22;38508;53.158;6.614;2023-05-29T13:16:13;22.60;99.90
52615;DHT22;38508;53.158;6.614;2023-05-29T13:18:38;22.00;99.90
52615;DHT22;38508;53.158;6.614;2023-05-29T13:21:04;21.90;99.90
52615;DHT22;38508;53.158;6.614;2023-05-29T13:23:31;21.70;99.90
52615;DHT22;38508;53.158;6.614;2023-05-29T13:25:56;21.80;99.90
52615;DHT22;38508;53.158;6.614;2023-05-29T13:28:22;21.20;99.90
52615;DHT22;38508;53.158;6.614;2023-05-29T13:30:49;20.90;99.90
52615;DHT22;38508;53.158;6.614;2023-05-29T13:33:15;21.30;99.90
52615;DHT22;38508;53.158;6.614;2023-05-29T13:35:40;21.50;99.90
52615;DHT22;38508;53.158;6.614;2023-05-29T13:38:06;21.50;99.90
52615;DHT22;38508;53.158;6.614;2023-05-29T13:40:32;21.60;99.90
52615;DHT22;38508;53.158;6.614;2023-05-29T13:42:57;21.60;99.90
52615;DHT22;38508;53.158;6.614;2023-05-29T13:45:23;21.80;99.90
52615;DHT22;38508;53.158;6.614;2023-05-29T13:47:49;21.90;99.90
52615;DHT22;38508;53.158;6.614;2023-05-29T13:50:15;22.00;99.90
52615;DHT22;38508;53.158;6.614;2023-05-29T13:52:40;21.70;99.90
52615;DHT22;38508;53.158;6.614;2023-05-29T13:55:07;21.70;99.90
52615;DHT22;38508;53.158;6.614;2023-05-29T13:57:35;21.60;99.90
52615;DHT22;38508;53.158;6.614;2023-05-29T14:00:03;21.70;99.90
52615;DHT22;38508;53.158;6.614;2023-05-29T14:02:29;21.80;99.90
52615;DHT22;38508;53.158;6.614;2023-05-29T14:04:54;22.00;99.90
52615;DHT22;38508;53.158;6.614;2023-05-29T14:07:20;21.60;99.90
52615;DHT22;38508;53.158;6.614;2023-05-29T14:09:46;21.40;99.90
52615;DHT22;38508;53.158;6.614;2023-05-29T14:12:12;21.50;99.90
52615;DHT22;38508;53.158;6.614;2023-05-29T14:14:37;21.50;99.90
52615;DHT22;38508;53.158;6.614;2023-05-29T14:17:04;22.20;99.90
52615;DHT22;38508;53.158;6.614;2023-05-29T14:19:30;22.30;99.90
52615;DHT22;38508;53.158;6.614;2023-05-29T14:21:56;22.60;99.90
52615;DHT22;38508;53.158;6.614;2023-05-29T14:24:22;22.50;99.90
52615;DHT22;38508;53.158;6.614;2023-05-29T14:26:50;22.40;99.90
52615;DHT22;38508;53.158;6.614;2023-05-29T14:29:16;22.70;99.90
52615;DHT22;38508;53.158;6.614;2023-05-29T14:31:43;22.70;99.90
52615;DHT22;38508;53.158;6.614;2023-05-29T14:34:09;22.30;99.90
52615;DHT22;38508;53.158;6.614;2023-05-29T14:36:35;22.30;99.90
52615;DHT22;38508;53.158;6.614;2023-05-29T14:39:03;22.40;99.90
52615;DHT22;38508;53.158;6.614;2023-05-29T14:41:29;22.30;99.90
52615;DHT22;38508;53.158;6.614;2023-05-29T14:43:54;21.70;99.90
52615;DHT22;38508;53.158;6.614;2023-05-29T14:46:26;22.00;99.90
52615;DHT22;38508;53.158;6.614;2023-05-29T14:48:54;22.40;99.90
52615;DHT22;38508;53.158;6.614;2023-05-29T14:51:20;22.20;99.90
52615;DHT22;38508;53.158;6.614;2023-05-29T14:53:46;22.20;99.90
52615;DHT22;38508;53.158;6.614;2023-05-29T14:56:12;22.40;99.90
52615;DHT22;38508;53.158;6.614;2023-05-29T14:58:37;22.40;99.90
52615;DHT22;38508;53.158;6.614;2023-05-29T15:01:03;22.50;99.90
52615;DHT22;38508;53.158;6.614;2023-05-29T15:03:29;22.40;99.90
52615;DHT22;38508;53.158;6.614;2023-05-29T15:05:55;22.70;99.90
52615;DHT22;38508;53.158;6.614;2023-05-29T15:08:20;22.50;99.90
52615;DHT22;38508;53.158;6.614;2023-05-29T15:10:46;22.00;99.90
52615;DHT22;38508;53.158;6.614;2023-05-29T15:13:12;22.30;99.90
52615;DHT22;38508;53.158;6.614;2023-05-29T15:15:37;22.40;99.90
52615;DHT22;38508;53.158;6.614;2023-05-29T15:18:03;22.60;99.90
52615;DHT22;38508;53.158;6.614;2023-05-29T15:20:29;22.60;99.90
52615;DHT22;38508;53.158;6.614;2023-05-29T15:22:55;22.40;99.90
52615;DHT22;38508;53.158;6.614;2023-05-29T15:25:21;22.30;99.90
52615;DHT22;38508;53.158;6.614;2023-05-29T15:27:47;22.40;99.90
52615;DHT22;38508;53.158;6.614;2023-05-29T15:30:15;21.50;99.90
52615;DHT22;38508;53.158;6.614;2023-05-29T15:32:42;21.90;99.90
52615;DHT22;38508;53.158;6.614;2023-05-29T15:35:14;22.40;99.90
52615;DHT22;38508;53.158;6.614;2023-05-29T15:37:41;22.50;99.90
52615;DHT22;38508;53.158;6.614;2023-05-29T15:40:07;22.60;99.90
52615;DHT22;38508;53.158;6.614;2023-05-29T15:42:35;22.80;99.90
52615;DHT22;38508;53.158;6.614;2023-05-29T15:45:02;22.20;99.90
52615;DHT22;38508;53.158;6.614;2023-05-29T15:47:29;22.10;99.90
52615;DHT22;38508;53.158;6.614;2023-05-29T15:49:55;21.90;99.90
52615;DHT22;38508;53.158;6.614;2023-05-29T15:52:21;21.40;99.90
52615;DHT22;38508;53.158;6.614;2023-05-29T15:54:47;20.80;99.90